sensor_id;sensor_type;location;lat;lon;timestamp;pressure;altitude;pressure_sealevel;temperature;humidity
34205;BME280;20471;49.680;20.074;2023-07-20T00:01:18;96524.17;;;16.59;72.91
34205;BME280;20471;49.680;20.074;2023-07-20T00:03:50;96512.91;;;16.48;73.23
34205;BME280;20471;49.680;20.074;2023-07-20T00:06:24;96513.89;;;16.43;73.34
34205;BME280;20471;49.680;20.074;2023-07-20T00:15:00;96520.16;;;16.42;73.71
34205;BME280;20471;49.680;20.074;2023-07-20T00:21:14;96505.11;;;16.37;73.67
34205;BME280;20471;49.680;20.074;2023-07-20T00:23:41;96506.45;;;16.32;73.60
34205;BME280;20471;49.680;20.074;2023-07-20T00:26:08;96506.02;;;16.27;73.64
34205;BME280;20471;49.680;20.074;2023-07-20T00:28:34;96505.02;;;16.25;73.77
34205;BME280;20471;49.680;20.074;2023-07-20T00:31:00;96506.32;;;16.21;73.90
34205;BME280;20471;49.680;20.074;2023-07-20T00:33:28;96505.39;;;16.18;73.90
34205;BME280;20471;49.680;20.074;2023-07-20T00:35:55;96503.34;;;16.16;73.92
34205;BME280;20471;49.680;20.074;2023-07-20T00:38:21;96499.84;;;16.15;74.00
34205;BME280;20471;49.680;20.074;2023-07-20T00:40:47;96498.32;;;16.14;74.08
34205;BME280;20471;49.680;20.074;2023-07-20T00:43:15;96495.63;;;16.08;74.13
34205;BME280;20471;49.680;20.074;2023-07-20T00:45:42;96497.02;;;15.99;74.06
34205;BME280;20471;49.680;20.074;2023-07-20T00:48:08;96495.51;;;15.88;74.15
34205;BME280;20471;49.680;20.074;2023-07-20T00:50:35;96497.66;;;15.78;74.32
34205;BME280;20471;49.680;20.074;2023-07-20T00:53:03;96501.91;;;15.70;74.37
34205;BME280;20471;49.680;20.074;2023-07-20T00:55:31;96500.80;;;15.63;74.70
34205;BME280;20471;49.680;20.074;2023-07-20T00:57:58;96503.88;;;15.58;75.02
34205;BME280;20471;49.680;20.074;2023-07-20T01:00:25;96501.30;;;15.55;75.12
34205;BME280;20471;49.680;20.074;2023-07-20T01:02:51;96496.36;;;15.53;75.32
34205;BME280;20471;49.680;20.074;2023-07-20T01:05:18;96495.45;;;15.54;75.50
34205;BME280;20471;49.680;20.074;2023-07-20T01:07:52;96492.48;;;15.56;75.50
34205;BME280;20471;49.680;20.074;2023-07-20T01:10:34;96491.90;;;15.52;75.49
34205;BME280;20471;49.680;20.074;2023-07-20T01:13:03;96488.02;;;15.50;75.47
34205;BME280;20471;49.680;20.074;2023-07-20T01:15:35;96489.27;;;15.47;75.55
34205;BME280;20471;49.680;20.074;2023-07-20T02:43:42;96523.95;;;15.68;77.28
34205;BME280;20471;49.680;20.074;2023-07-20T02:46:50;96515.95;;;15.68;77.51
34205;BME280;20471;49.680;20.074;2023-07-20T04:48:58;96626.55;;;16.98;78.13
34205;BME280;20471;49.680;20.074;2023-07-20T04:51:33;96631.61;;;16.96;78.21
34205;BME280;20471;49.680;20.074;2023-07-20T04:54:05;96630.29;;;16.94;77.97
34205;BME280;20471;49.680;20.074;2023-07-20T04:57:13;96627.41;;;16.89;77.00
34205;BME280;20471;49.680;20.074;2023-07-20T05:00:20;96625.73;;;16.89;76.37
34205;BME280;20471;49.680;20.074;2023-07-20T05:03:28;96626.54;;;16.95;76.11
34205;BME280;20471;49.680;20.074;2023-07-20T05:09:40;96631.09;;;17.12;75.49
34205;BME280;20471;49.680;20.074;2023-07-20T05:59:24;96690.76;;;18.35;69.97
34205;BME280;20471;49.680;20.074;2023-07-20T06:01:50;96688.10;;;18.24;69.84
34205;BME280;20471;49.680;20.074;2023-07-20T06:04:16;96686.27;;;18.19;70.03
34205;BME280;20471;49.680;20.074;2023-07-20T06:06:43;96690.18;;;18.23;70.07
34205;BME280;20471;49.680;20.074;2023-07-20T06:09:09;96682.79;;;18.31;69.85
34205;BME280;20471;49.680;20.074;2023-07-20T06:11:38;96678.49;;;18.39;69.59
34205;BME280;20471;49.680;20.074;2023-07-20T06:14:05;96673.68;;;18.44;69.48
34205;BME280;20471;49.680;20.074;2023-07-20T06:16:31;96674.92;;;18.47;69.00
34205;BME280;20471;49.680;20.074;2023-07-20T06:19:00;96679.88;;;18.53;68.96
34205;BME280;20471;49.680;20.074;2023-07-20T06:21:26;96684.40;;;18.61;68.92
34205;BME280;20471;49.680;20.074;2023-07-20T06:23:52;96680.28;;;18.65;68.82
34205;BME280;20471;49.680;20.074;2023-07-20T06:26:19;96683.73;;;18.67;68.63
34205;BME280;20471;49.680;20.074;2023-07-20T06:28:46;96686.98;;;18.73;68.34
34205;BME280;20471;49.680;20.074;2023-07-20T06:31:12;96682.98;;;18.73;68.49
34205;BME280;20471;49.680;20.074;2023-07-20T06:33:39;96679.31;;;18.77;68.13
34205;BME280;20471;49.680;20.074;2023-07-20T06:36:05;96687.10;;;18.82;67.70
34205;BME280;20471;49.680;20.074;2023-07-20T06:38:31;96688.84;;;18.84;67.62
34205;BME280;20471;49.680;20.074;2023-07-20T06:40:58;96687.17;;;18.87;67.48
34205;BME280;20471;49.680;20.074;2023-07-20T06:43:24;96682.48;;;18.88;67.60
34205;BME280;20471;49.680;20.074;2023-07-20T06:45:51;96676.34;;;18.89;67.24
34205;BME280;20471;49.680;20.074;2023-07-20T06:48:18;96674.17;;;18.86;66.90
34205;BME280;20471;49.680;20.074;2023-07-20T06:50:45;96676.25;;;18.84;66.91
34205;BME280;20471;49.680;20.074;2023-07-20T06:53:12;96678.80;;;18.87;67.15
34205;BME280;20471;49.680;20.074;2023-07-20T06:55:39;96678.97;;;18.89;66.79
34205;BME280;20471;49.680;20.074;2023-07-20T06:58:05;96678.63;;;18.93;66.69
34205;BME280;20471;49.680;20.074;2023-07-20T07:00:31;96670.77;;;18.97;66.59
34205;BME280;20471;49.680;20.074;2023-07-20T07:03:18;96669.94;;;19.00;66.52
34205;BME280;20471;49.680;20.074;2023-07-20T07:12:41;96666.80;;;19.01;65.47
34205;BME280;20471;49.680;20.074;2023-07-20T07:15:48;96663.60;;;19.07;65.37
34205;BME280;20471;49.680;20.074;2023-07-20T07:19:03;96659.65;;;19.17;65.49
34205;BME280;20471;49.680;20.074;2023-07-20T07:22:27;96662.15;;;19.28;65.33
34205;BME280;20471;49.680;20.074;2023-07-20T07:31:34;96656.34;;;19.54;64.47
34205;BME280;20471;49.680;20.074;2023-07-20T07:34:03;96656.77;;;19.60;64.68
34205;BME280;20471;49.680;20.074;2023-07-20T07:36:33;96656.20;;;19.69;64.54
34205;BME280;20471;49.680;20.074;2023-07-20T07:39:01;96656.69;;;19.77;64.53
34205;BME280;20471;49.680;20.074;2023-07-20T07:41:28;96660.14;;;19.81;64.34
34205;BME280;20471;49.680;20.074;2023-07-20T07:43:56;96657.25;;;19.86;63.85
34205;BME280;20471;49.680;20.074;2023-07-20T07:46:24;96659.29;;;19.96;64.12
34205;BME280;20471;49.680;20.074;2023-07-20T07:48:51;96661.05;;;20.06;63.44
34205;BME280;20471;49.680;20.074;2023-07-20T07:51:19;96661.22;;;20.22;63.22
34205;BME280;20471;49.680;20.074;2023-07-20T07:53:47;96662.63;;;20.44;62.59
34205;BME280;20471;49.680;20.074;2023-07-20T07:56:15;96656.02;;;20.74;62.44
34205;BME280;20471;49.680;20.074;2023-07-20T07:58:43;96653.06;;;21.05;62.15
34205;BME280;20471;49.680;20.074;2023-07-20T08:01:11;96652.23;;;21.48;61.39
34205;BME280;20471;49.680;20.074;2023-07-20T08:03:39;96653.55;;;21.97;61.43
34205;BME280;20471;49.680;20.074;2023-07-20T08:06:06;96651.87;;;22.40;60.49
34205;BME280;20471;49.680;20.074;2023-07-20T08:08:34;96653.81;;;22.82;59.99
34205;BME280;20471;49.680;20.074;2023-07-20T08:11:35;96655.02;;;23.25;59.83
34205;BME280;20471;49.680;20.074;2023-07-20T08:14:18;96659.24;;;23.77;58.72
34205;BME280;20471;49.680;20.074;2023-07-20T08:16:55;96663.13;;;24.26;57.45
34205;BME280;20471;49.680;20.074;2023-07-20T08:19:26;96662.61;;;24.64;56.81
34205;BME280;20471;49.680;20.074;2023-07-20T08:21:56;96659.01;;;24.94;56.26
34205;BME280;20471;49.680;20.074;2023-07-20T08:24:27;96664.47;;;25.22;55.35
34205;BME280;20471;49.680;20.074;2023-07-20T08:26:54;96669.61;;;25.46;54.69
34205;BME280;20471;49.680;20.074;2023-07-20T08:29:23;96677.73;;;25.46;54.37
34205;BME280;20471;49.680;20.074;2023-07-20T08:31:54;96677.59;;;25.06;53.79
34205;BME280;20471;49.680;20.074;2023-07-20T08:34:24;96678.42;;;24.72;53.93
34205;BME280;20471;49.680;20.074;2023-07-20T08:36:57;96685.64;;;24.52;53.41
34205;BME280;20471;49.680;20.074;2023-07-20T08:39:25;96685.08;;;24.34;53.03
34205;BME280;20471;49.680;20.074;2023-07-20T08:41:54;96687.52;;;24.24;52.93
34205;BME280;20471;49.680;20.074;2023-07-20T08:44:24;96691.33;;;24.09;53.12
34205;BME280;20471;49.680;20.074;2023-07-20T08:46:54;96690.49;;;23.95;52.99
34205;BME280;20471;49.680;20.074;2023-07-20T08:49:22;96691.08;;;23.81;53.64
34205;BME280;20471;49.680;20.074;2023-07-20T08:51:51;96686.63;;;23.78;53.31
34205;BME280;20471;49.680;20.074;2023-07-20T08:54:20;96685.83;;;23.77;53.57
34205;BME280;20471;49.680;20.074;2023-07-20T11:17:10;96665.73;;;25.68;46.45
34205;BME280;20471;49.680;20.074;2023-07-20T12:26:13;96642.40;;;26.02;42.76
34205;BME280;20471;49.680;20.074;2023-07-20T12:29:11;96646.30;;;26.47;42.44
34205;BME280;20471;49.680;20.074;2023-07-20T12:34:54;96652.20;;;26.12;41.64
34205;BME280;20471;49.680;20.074;2023-07-20T12:38:00;96655.22;;;26.05;41.75
34205;BME280;20471;49.680;20.074;2023-07-20T12:40:46;96653.42;;;25.91;41.82
34205;BME280;20471;49.680;20.074;2023-07-20T12:43:33;96652.08;;;25.77;41.88
34205;BME280;20471;49.680;20.074;2023-07-20T12:46:40;96653.23;;;25.69;42.28
34205;BME280;20471;49.680;20.074;2023-07-20T12:55:34;96645.02;;;25.17;42.95
34205;BME280;20471;49.680;20.074;2023-07-20T12:58:15;96647.55;;;24.97;43.42
34205;BME280;20471;49.680;20.074;2023-07-20T13:00:57;96651.73;;;24.72;43.70
34205;BME280;20471;49.680;20.074;2023-07-20T13:03:38;96652.73;;;24.62;44.27
34205;BME280;20471;49.680;20.074;2023-07-20T13:06:19;96651.07;;;24.80;44.41
34205;BME280;20471;49.680;20.074;2023-07-20T13:09:02;96644.31;;;24.95;44.12
34205;BME280;20471;49.680;20.074;2023-07-20T13:11:29;96644.17;;;25.05;43.88
34205;BME280;20471;49.680;20.074;2023-07-20T13:13:55;96643.15;;;25.17;43.39
34205;BME280;20471;49.680;20.074;2023-07-20T13:16:21;96638.73;;;25.35;42.95
34205;BME280;20471;49.680;20.074;2023-07-20T13:18:48;96634.98;;;25.59;42.69
34205;BME280;20471;49.680;20.074;2023-07-20T13:21:14;96630.88;;;25.76;42.41
34205;BME280;20471;49.680;20.074;2023-07-20T13:23:41;96629.88;;;25.98;42.11
34205;BME280;20471;49.680;20.074;2023-07-20T13:26:07;96629.00;;;26.12;41.98
34205;BME280;20471;49.680;20.074;2023-07-20T13:28:34;96632.03;;;26.24;41.67
34205;BME280;20471;49.680;20.074;2023-07-20T13:31:00;96633.92;;;26.39;41.30
34205;BME280;20471;49.680;20.074;2023-07-20T13:33:26;96632.02;;;26.45;40.95
34205;BME280;20471;49.680;20.074;2023-07-20T13:35:53;96634.13;;;26.53;40.91
34205;BME280;20471;49.680;20.074;2023-07-20T13:38:19;96632.36;;;26.60;40.82
34205;BME280;20471;49.680;20.074;2023-07-20T13:40:46;96631.02;;;26.62;40.80
34205;BME280;20471;49.680;20.074;2023-07-20T13:43:12;96628.80;;;26.49;40.61
34205;BME280;20471;49.680;20.074;2023-07-20T13:45:38;96638.75;;;26.37;41.01
34205;BME280;20471;49.680;20.074;2023-07-20T13:48:05;96639.65;;;26.16;41.07
34205;BME280;20471;49.680;20.074;2023-07-20T13:50:31;96644.25;;;25.89;41.91
34205;BME280;20471;49.680;20.074;2023-07-20T13:52:57;96649.73;;;25.64;42.53
34205;BME280;20471;49.680;20.074;2023-07-20T13:55:24;96647.45;;;25.45;42.67
34205;BME280;20471;49.680;20.074;2023-07-20T13:57:50;96653.00;;;25.30;42.73
34205;BME280;20471;49.680;20.074;2023-07-20T14:00:17;96653.27;;;25.12;43.41
34205;BME280;20471;49.680;20.074;2023-07-20T14:02:43;96658.23;;;24.97;43.51
34205;BME280;20471;49.680;20.074;2023-07-20T14:05:10;96659.02;;;24.90;43.76
34205;BME280;20471;49.680;20.074;2023-07-20T14:07:37;96658.45;;;24.81;44.08
34205;BME280;20471;49.680;20.074;2023-07-20T14:10:03;96656.98;;;24.94;43.98
34205;BME280;20471;49.680;20.074;2023-07-20T14:12:30;96655.78;;;25.12;42.95
34205;BME280;20471;49.680;20.074;2023-07-20T14:14:56;96656.19;;;25.29;41.75
34205;BME280;20471;49.680;20.074;2023-07-20T14:17:22;96651.70;;;25.50;41.40
34205;BME280;20471;49.680;20.074;2023-07-20T14:19:50;96650.30;;;25.72;41.33
34205;BME280;20471;49.680;20.074;2023-07-20T14:22:17;96647.60;;;25.92;41.92
34205;BME280;20471;49.680;20.074;2023-07-20T14:24:43;96643.86;;;26.00;41.44
34205;BME280;20471;49.680;20.074;2023-07-20T14:27:09;96642.80;;;26.03;41.39
34205;BME280;20471;49.680;20.074;2023-07-20T14:30:18;96644.26;;;25.98;41.49
34205;BME280;20471;49.680;20.074;2023-07-20T14:33:24;96646.71;;;25.74;40.94
34205;BME280;20471;49.680;20.074;2023-07-20T14:39:17;96648.11;;;25.61;40.65
34205;BME280;20471;49.680;20.074;2023-07-20T14:45:20;96647.96;;;25.37;40.47
34205;BME280;20471;49.680;20.074;2023-07-20T14:48:27;96646.17;;;25.21;40.21
34205;BME280;20471;49.680;20.074;2023-07-20T14:51:33;96649.18;;;25.07;40.20
34205;BME280;20471;49.680;20.074;2023-07-20T14:54:38;96645.10;;;24.98;40.63
34205;BME280;20471;49.680;20.074;2023-07-20T15:00:11;96646.23;;;24.72;40.65
34205;BME280;20471;49.680;20.074;2023-07-20T15:02:37;96651.23;;;24.68;40.72
34205;BME280;20471;49.680;20.074;2023-07-20T15:05:03;96656.48;;;24.65;40.95
34205;BME280;20471;49.680;20.074;2023-07-20T15:07:28;96654.76;;;24.54;41.71
34205;BME280;20471;49.680;20.074;2023-07-20T15:09:54;96650.42;;;24.31;42.44
34205;BME280;20471;49.680;20.074;2023-07-20T15:12:19;96650.76;;;24.16;43.42
34205;BME280;20471;49.680;20.074;2023-07-20T15:15:05;96656.61;;;24.12;43.30
34205;BME280;20471;49.680;20.074;2023-07-20T15:41:38;96675.42;;;24.37;43.78
34205;BME280;20471;49.680;20.074;2023-07-20T16:06:37;96836.52;;;23.24;44.50
34205;BME280;20471;49.680;20.074;2023-07-20T18:05:33;96827.35;;;18.43;64.79
34205;BME280;20471;49.680;20.074;2023-07-20T18:35:56;96833.17;;;18.04;66.47
34205;BME280;20471;49.680;20.074;2023-07-20T18:38:23;96839.77;;;17.90;66.20
34205;BME280;20471;49.680;20.074;2023-07-20T18:40:51;96838.26;;;17.71;65.97
34205;BME280;20471;49.680;20.074;2023-07-20T18:43:19;96839.06;;;17.56;66.36
34205;BME280;20471;49.680;20.074;2023-07-20T18:45:47;96838.95;;;17.50;66.62
34205;BME280;20471;49.680;20.074;2023-07-20T18:48:15;96840.57;;;17.43;66.99
34205;BME280;20471;49.680;20.074;2023-07-20T18:50:42;96842.46;;;17.41;67.11
34205;BME280;20471;49.680;20.074;2023-07-20T18:53:10;96851.89;;;17.40;67.06
34205;BME280;20471;49.680;20.074;2023-07-20T18:55:38;96853.70;;;17.34;67.32
34205;BME280;20471;49.680;20.074;2023-07-20T18:58:05;96857.70;;;17.31;67.14
34205;BME280;20471;49.680;20.074;2023-07-20T19:00:33;96862.28;;;17.27;67.17
34205;BME280;20471;49.680;20.074;2023-07-20T19:03:01;96870.23;;;17.23;67.24
34205;BME280;20471;49.680;20.074;2023-07-20T19:05:29;96874.40;;;17.15;67.08
34205;BME280;20471;49.680;20.074;2023-07-20T19:14:53;96887.85;;;16.92;67.63
34205;BME280;20471;49.680;20.074;2023-07-20T19:46:55;96915.90;;;16.37;68.86
34205;BME280;20471;49.680;20.074;2023-07-20T19:49:23;96918.48;;;16.35;68.96
34205;BME280;20471;49.680;20.074;2023-07-20T19:52:04;96920.67;;;16.31;68.99
34205;BME280;20471;49.680;20.074;2023-07-20T19:54:31;96920.42;;;16.20;68.67
34205;BME280;20471;49.680;20.074;2023-07-20T19:56:58;96925.91;;;16.01;68.89
34205;BME280;20471;49.680;20.074;2023-07-20T19:59:25;96925.54;;;15.91;69.03
34205;BME280;20471;49.680;20.074;2023-07-20T20:01:52;96930.60;;;15.80;69.43
34205;BME280;20471;49.680;20.074;2023-07-20T20:04:18;96931.35;;;15.76;69.48
34205;BME280;20471;49.680;20.074;2023-07-20T20:07:00;96928.45;;;15.64;69.64
34205;BME280;20471;49.680;20.074;2023-07-20T20:09:33;96929.04;;;15.58;70.10
34205;BME280;20471;49.680;20.074;2023-07-20T20:11:59;96929.91;;;15.57;70.09
34205;BME280;20471;49.680;20.074;2023-07-20T20:14:41;96935.45;;;15.50;70.36
34205;BME280;20471;49.680;20.074;2023-07-20T20:17:08;96939.14;;;15.49;70.45
34205;BME280;20471;49.680;20.074;2023-07-20T20:19:34;96940.28;;;15.49;70.44
34205;BME280;20471;49.680;20.074;2023-07-20T20:22:00;96942.22;;;15.48;70.34
34205;BME280;20471;49.680;20.074;2023-07-20T20:44:37;96950.99;;;15.12;70.95
34205;BME280;20471;49.680;20.074;2023-07-20T20:53:33;96958.77;;;15.08;70.78
34205;BME280;20471;49.680;20.074;2023-07-20T20:56:01;96952.39;;;15.02;70.88
34205;BME280;20471;49.680;20.074;2023-07-20T20:58:29;96953.44;;;15.01;70.90
34205;BME280;20471;49.680;20.074;2023-07-20T21:01:00;96954.38;;;14.97;70.86
34205;BME280;20471;49.680;20.074;2023-07-20T21:03:28;96957.61;;;14.92;70.92
34205;BME280;20471;49.680;20.074;2023-07-20T21:05:57;96956.46;;;14.88;71.04
34205;BME280;20471;49.680;20.074;2023-07-20T21:08:25;96958.47;;;14.83;71.08
34205;BME280;20471;49.680;20.074;2023-07-20T21:10:57;96952.33;;;14.80;71.09
34205;BME280;20471;49.680;20.074;2023-07-20T21:13:25;96953.34;;;14.78;71.10
34205;BME280;20471;49.680;20.074;2023-07-20T21:15:54;96955.97;;;14.73;71.12
34205;BME280;20471;49.680;20.074;2023-07-20T21:18:22;96954.72;;;14.68;71.27
34205;BME280;20471;49.680;20.074;2023-07-20T21:20:50;96956.55;;;14.65;71.30
34205;BME280;20471;49.680;20.074;2023-07-20T21:43:39;96957.10;;;13.82;71.93
34205;BME280;20471;49.680;20.074;2023-07-20T21:49:56;96954.15;;;13.81;72.98
34205;BME280;20471;49.680;20.074;2023-07-20T21:53:06;96958.45;;;13.79;73.02
34205;BME280;20471;49.680;20.074;2023-07-20T21:55:30;96961.58;;;13.74;73.08
34205;BME280;20471;49.680;20.074;2023-07-20T21:57:58;96968.70;;;13.72;73.22
34205;BME280;20471;49.680;20.074;2023-07-20T22:00:39;96971.48;;;13.73;73.47
34205;BME280;20471;49.680;20.074;2023-07-20T22:03:21;96973.51;;;13.77;73.46
34205;BME280;20471;49.680;20.074;2023-07-20T22:06:02;96966.86;;;13.79;73.22
34205;BME280;20471;49.680;20.074;2023-07-20T22:08:58;96966.70;;;13.79;73.06
34205;BME280;20471;49.680;20.074;2023-07-20T22:11:40;96967.96;;;13.77;72.95
34205;BME280;20471;49.680;20.074;2023-07-20T22:14:22;96965.19;;;13.73;73.04
34205;BME280;20471;49.680;20.074;2023-07-20T22:16:51;96968.47;;;13.67;72.80
34205;BME280;20471;49.680;20.074;2023-07-20T22:19:34;96965.65;;;13.53;72.90
34205;BME280;20471;49.680;20.074;2023-07-20T22:22:21;96967.71;;;13.50;73.37
34205;BME280;20471;49.680;20.074;2023-07-20T22:31:47;96966.23;;;13.29;73.84
34205;BME280;20471;49.680;20.074;2023-07-20T22:37:58;96971.59;;;13.36;74.22
34205;BME280;20471;49.680;20.074;2023-07-20T22:50:58;96971.05;;;13.36;73.82
34205;BME280;20471;49.680;20.074;2023-07-20T22:53:26;96972.03;;;13.31;73.70
34205;BME280;20471;49.680;20.074;2023-07-20T22:55:56;96969.04;;;13.25;73.74
34205;BME280;20471;49.680;20.074;2023-07-20T22:58:24;96969.97;;;13.25;73.81
34205;BME280;20471;49.680;20.074;2023-07-20T23:00:52;96967.94;;;13.24;73.78
34205;BME280;20471;49.680;20.074;2023-07-20T23:03:20;96971.40;;;13.22;73.64
34205;BME280;20471;49.680;20.074;2023-07-20T23:05:47;96974.65;;;13.19;73.66
34205;BME280;20471;49.680;20.074;2023-07-20T23:08:15;96973.96;;;13.13;73.61
34205;BME280;20471;49.680;20.074;2023-07-20T23:10:43;96971.31;;;13.10;73.66
34205;BME280;20471;49.680;20.074;2023-07-20T23:13:11;96975.88;;;13.08;73.65
34205;BME280;20471;49.680;20.074;2023-07-20T23:15:38;96977.09;;;13.06;73.81
34205;BME280;20471;49.680;20.074;2023-07-20T23:18:07;96976.66;;;13.04;73.80
34205;BME280;20471;49.680;20.074;2023-07-20T23:20:34;96976.85;;;13.02;73.83
34205;BME280;20471;49.680;20.074;2023-07-20T23:23:02;96976.14;;;12.99;73.96
34205;BME280;20471;49.680;20.074;2023-07-20T23:25:31;96975.33;;;12.98;74.02
34205;BME280;20471;49.680;20.074;2023-07-20T23:27:58;96976.89;;;12.97;73.87
34205;BME280;20471;49.680;20.074;2023-07-20T23:30:26;96978.14;;;12.95;73.92
34205;BME280;20471;49.680;20.074;2023-07-20T23:33:40;96979.20;;;12.89;73.87
34205;BME280;20471;49.680;20.074;2023-07-20T23:43:01;96974.38;;;12.84;74.14
